Time;durP1;ratioP1;P1;durP2;ratioP2;P2;SDS_P1;SDS_P2;PMS_P1;PMS_P2;Temp;Humidity;BMP_temperature;BMP_pressure;BME280_temperature;BME280_humidity;BME280_pressure;Samples;Min_cycle;Max_cycle;Signal;HPM_P1;HPM_P2
2022/03/11 00:00:17;;;;;;;21.10;10.77;;;0.70;99.90;;;;;;5051551;28;20485;-48
2022/03/11 00:02:43;;;;;;;14.30;9.70;;;0.70;99.90;;;;;;5048644;28;20951;-48
2022/03/11 00:05:12;;;;;;;17.83;10.97;;;0.60;99.90;;;;;;5053081;28;20901;-48
2022/03/11 00:07:39;;;;;;;14.73;10.10;;;0.70;99.90;;;;;;5052062;28;20472;-48
2022/03/11 00:10:06;;;;;;;15.57;10.47;;;0.60;99.90;;;;;;5051940;28;21001;-48
2022/03/11 00:12:32;;;;;;;14.83;9.80;;;0.60;99.90;;;;;;5037888;28;20551;-48
2022/03/11 00:14:59;;;;;;;20.43;11.03;;;0.60;99.90;;;;;;5051770;28;20572;-48
2022/03/11 00:17:25;;;;;;;14.37;10.30;;;0.60;99.90;;;;;;5050976;28;20815;-47
2022/03/11 00:19:52;;;;;;;15.77;11.27;;;0.50;99.90;;;;;;5049642;28;20496;-48
2022/03/11 00:22:20;;;;;;;15.10;10.37;;;0.50;99.90;;;;;;5047561;28;20546;-48
2022/03/11 00:24:46;;;;;;;17.23;10.77;;;0.40;99.90;;;;;;5047381;28;21078;-47
2022/03/11 00:27:13;;;;;;;17.87;11.57;;;0.40;99.90;;;;;;5046551;28;20474;-48
2022/03/11 00:29:39;;;;;;;12.77;9.70;;;0.40;99.90;;;;;;5051147;28;20494;-48
2022/03/11 00:32:07;;;;;;;13.73;9.93;;;0.40;99.90;;;;;;5045143;28;20496;-48
2022/03/11 00:34:34;;;;;;;13.87;10.03;;;0.30;99.90;;;;;;5050719;28;20528;-47
2022/03/11 00:37:01;;;;;;;16.20;11.63;;;0.30;99.90;;;;;;5052152;28;20446;-48
2022/03/11 00:39:28;;;;;;;18.00;10.30;;;0.30;99.90;;;;;;5051046;28;20540;-47
2022/03/11 00:41:55;;;;;;;15.37;10.40;;;0.30;99.90;;;;;;5048451;28;20496;-48
2022/03/11 00:44:30;;;;;;;17.73;11.50;;;0.30;99.90;;;;;;5081291;27;20550;-48
2022/03/11 00:46:57;;;;;;;14.33;11.20;;;0.20;99.90;;;;;;5068393;28;20832;-47
2022/03/11 00:49:23;;;;;;;13.40;10.30;;;0.20;99.90;;;;;;5065534;28;21173;-48
2022/03/11 00:51:50;;;;;;;18.90;11.97;;;0.20;99.90;;;;;;5065041;28;21565;-48
2022/03/11 00:54:16;;;;;;;15.17;10.30;;;0.10;99.90;;;;;;5067054;28;20488;-49
2022/03/11 00:56:43;;;;;;;19.63;10.43;;;0.10;99.90;;;;;;5068020;28;20477;-48
2022/03/11 00:59:09;;;;;;;13.10;10.13;;;0.10;99.90;;;;;;5067962;28;20469;-47
2022/03/11 01:01:37;;;;;;;17.60;11.00;;;0.10;99.90;;;;;;5066884;28;20461;-49
2022/03/11 01:04:04;;;;;;;15.40;11.30;;;0.10;99.90;;;;;;5067672;28;20582;-49
2022/03/11 01:06:31;;;;;;;15.37;11.10;;;0.10;99.90;;;;;;5079531;28;20974;-49
2022/03/11 01:08:57;;;;;;;15.03;10.53;;;0.00;99.90;;;;;;5083846;28;20461;-49
2022/03/11 01:11:24;;;;;;;14.63;10.70;;;0.00;99.90;;;;;;5081429;28;20457;-48
2022/03/11 01:13:50;;;;;;;17.70;11.13;;;0.00;99.90;;;;;;5083375;28;20997;-49
2022/03/11 01:16:17;;;;;;;23.53;10.97;;;0.00;99.90;;;;;;5086164;28;20445;-48
2022/03/11 01:18:45;;;;;;;18.70;11.80;;;0.00;99.90;;;;;;5071895;28;20464;-49
2022/03/11 01:21:12;;;;;;;16.13;10.70;;;-0.10;99.90;;;;;;5066506;28;20488;-48
2022/03/11 01:23:38;;;;;;;13.90;10.50;;;-0.10;99.90;;;;;;5065148;28;20481;-48
2022/03/11 01:26:05;;;;;;;15.00;10.57;;;-0.10;99.90;;;;;;5066947;28;20493;-48
2022/03/11 01:28:32;;;;;;;18.50;11.53;;;-0.20;99.90;;;;;;5067907;28;21046;-48
2022/03/11 01:30:59;;;;;;;17.53;10.70;;;-0.20;99.90;;;;;;5064869;28;20853;-48
2022/03/11 01:33:26;;;;;;;18.47;11.03;;;-0.20;99.90;;;;;;5067758;28;20957;-48
2022/03/11 01:35:54;;;;;;;17.33;10.80;;;-0.20;99.90;;;;;;5065096;28;20525;-48
2022/03/11 01:38:20;;;;;;;12.80;10.60;;;-0.20;99.90;;;;;;5066821;28;20472;-48
2022/03/11 01:40:47;;;;;;;17.80;11.43;;;-0.20;99.90;;;;;;5063647;28;20489;-48
2022/03/11 01:43:15;;;;;;;15.43;10.73;;;-0.20;99.90;;;;;;5066896;28;20554;-47
2022/03/11 01:45:41;;;;;;;16.77;10.83;;;-0.20;99.90;;;;;;5066211;28;20484;-48
2022/03/11 01:48:09;;;;;;;18.20;9.30;;;-0.20;99.90;;;;;;5064783;28;20512;-48
2022/03/11 01:50:35;;;;;;;20.50;10.40;;;-0.20;99.90;;;;;;5064720;28;20468;-47
2022/03/11 01:53:03;;;;;;;15.70;10.60;;;-0.20;99.90;;;;;;5067203;28;20441;-47
2022/03/11 01:55:30;;;;;;;16.80;11.37;;;-0.30;99.90;;;;;;5046159;28;20481;-47
2022/03/11 01:57:57;;;;;;;22.00;11.30;;;-0.30;99.90;;;;;;5053258;28;20447;-47
2022/03/11 02:00:23;;;;;;;13.80;10.33;;;-0.30;99.90;;;;;;5052654;28;20489;-47
2022/03/11 02:02:50;;;;;;;19.00;11.80;;;-0.30;99.90;;;;;;5053720;28;20535;-47
2022/03/11 02:05:17;;;;;;;14.53;10.00;;;-0.30;99.90;;;;;;5052729;28;20509;-47
2022/03/11 02:07:44;;;;;;;19.30;10.73;;;-0.30;99.90;;;;;;5053438;28;20538;-47
2022/03/11 02:10:12;;;;;;;17.50;11.07;;;-0.40;99.90;;;;;;5051207;28;20488;-48
2022/03/11 02:12:38;;;;;;;19.90;11.10;;;-0.40;99.90;;;;;;5053574;28;20507;-48
2022/03/11 02:15:07;;;;;;;16.13;11.40;;;-0.30;99.90;;;;;;5052658;28;20482;-48
2022/03/11 02:17:34;;;;;;;17.40;10.30;;;-0.30;99.90;;;;;;5054022;28;20454;-48
2022/03/11 02:20:00;;;;;;;14.97;11.20;;;-0.30;99.90;;;;;;5052446;28;20489;-48
2022/03/11 02:22:28;;;;;;;17.27;10.70;;;-0.50;99.90;;;;;;5051806;28;20987;-48
2022/03/11 02:24:56;;;;;;;16.03;10.90;;;-0.40;99.90;;;;;;5048334;28;20548;-48
2022/03/11 02:27:23;;;;;;;23.60;11.00;;;-0.50;99.90;;;;;;5052663;28;20512;-48
2022/03/11 02:29:50;;;;;;;14.77;11.20;;;-0.50;99.90;;;;;;5051298;28;20490;-48
2022/03/11 02:32:16;;;;;;;17.50;12.07;;;-0.60;99.90;;;;;;5051737;28;20500;-48
2022/03/11 02:34:43;;;;;;;15.50;11.90;;;-0.60;99.90;;;;;;5052005;28;20486;-47
2022/03/11 02:37:09;;;;;;;18.30;11.57;;;-0.60;99.90;;;;;;5053261;28;20474;-48
2022/03/11 02:39:36;;;;;;;20.70;11.50;;;-0.60;99.90;;;;;;5052271;28;20457;-48
2022/03/11 02:42:04;;;;;;;20.57;10.67;;;-0.60;99.90;;;;;;5052066;28;20465;-48
2022/03/11 02:44:31;;;;;;;16.10;11.20;;;-0.60;99.90;;;;;;5051262;28;20525;-48
2022/03/11 02:46:59;;;;;;;15.23;10.83;;;-0.60;99.90;;;;;;5044488;28;20469;-48
2022/03/11 02:49:26;;;;;;;12.63;11.20;;;-0.60;99.90;;;;;;5053009;28;20449;-48
2022/03/11 02:51:53;;;;;;;18.00;11.03;;;-0.70;99.90;;;;;;5050583;28;20541;-48
2022/03/11 02:54:19;;;;;;;15.27;11.30;;;-0.70;99.90;;;;;;5051666;28;20582;-48
2022/03/11 02:56:46;;;;;;;15.97;11.33;;;-0.80;99.90;;;;;;5051897;28;20489;-48
2022/03/11 02:59:14;;;;;;;15.07;10.97;;;-0.80;99.90;;;;;;5052439;28;20904;-48
2022/03/11 03:01:40;;;;;;;21.63;12.10;;;-0.80;99.90;;;;;;5051350;28;20552;-48
2022/03/11 03:04:07;;;;;;;18.13;12.43;;;-0.80;99.90;;;;;;5054704;28;20585;-49
2022/03/11 03:06:33;;;;;;;16.03;11.00;;;-0.80;99.90;;;;;;5051233;28;20497;-47
2022/03/11 03:09:00;;;;;;;18.83;12.00;;;-0.80;99.90;;;;;;5052825;28;21007;-49
2022/03/11 03:11:26;;;;;;;15.97;11.50;;;-0.80;99.90;;;;;;5051439;28;20488;-48
2022/03/11 03:13:53;;;;;;;16.83;11.40;;;-0.90;99.90;;;;;;5052781;28;20477;-48
2022/03/11 03:16:21;;;;;;;18.30;12.23;;;-1.00;99.90;;;;;;5050369;28;20557;-48
2022/03/11 03:18:47;;;;;;;16.40;11.40;;;-1.00;99.90;;;;;;5052896;28;20560;-48
2022/03/11 03:21:14;;;;;;;17.80;11.80;;;-1.00;99.90;;;;;;5050531;28;21045;-48
2022/03/11 03:23:41;;;;;;;21.23;13.07;;;-1.00;99.90;;;;;;5052414;28;20580;-48
2022/03/11 03:26:07;;;;;;;20.13;11.80;;;-1.00;99.90;;;;;;5051586;28;20549;-48
2022/03/11 03:28:34;;;;;;;16.90;11.80;;;-1.00;99.90;;;;;;5052407;28;21030;-48
2022/03/11 03:31:00;;;;;;;16.83;11.07;;;-1.00;99.90;;;;;;5058430;28;20518;-47
2022/03/11 03:33:28;;;;;;;15.93;11.23;;;-1.10;99.90;;;;;;5073422;28;20442;-48
2022/03/11 03:35:55;;;;;;;15.47;10.97;;;-1.10;99.90;;;;;;5072753;28;20462;-49
2022/03/11 03:38:21;;;;;;;19.40;12.00;;;-1.00;99.90;;;;;;5053844;28;20911;-48
2022/03/11 03:40:48;;;;;;;17.10;11.40;;;-1.00;99.90;;;;;;5051361;28;20533;-47
2022/03/11 03:43:14;;;;;;;18.33;11.90;;;-1.00;99.90;;;;;;5051196;28;20557;-48
2022/03/11 03:45:41;;;;;;;18.57;12.83;;;-1.10;99.90;;;;;;5052574;28;20553;-48
2022/03/11 03:48:08;;;;;;;22.43;12.47;;;-1.10;99.90;;;;;;5047877;28;20553;-47
2022/03/11 03:50:36;;;;;;;15.07;10.90;;;-1.20;99.90;;;;;;5040260;28;20561;-47
2022/03/11 03:53:02;;;;;;;16.73;11.37;;;-1.20;99.90;;;;;;5048639;28;20549;-48
2022/03/11 03:55:29;;;;;;;14.73;11.83;;;-1.20;99.90;;;;;;5051207;28;21062;-48
2022/03/11 03:57:55;;;;;;;19.13;12.17;;;-1.20;99.90;;;;;;5049502;28;20458;-48
2022/03/11 04:00:22;;;;;;;18.60;11.43;;;-1.20;99.90;;;;;;5049216;28;21102;-48
2022/03/11 04:02:50;;;;;;;19.87;13.27;;;-1.20;99.90;;;;;;5048759;28;20561;-48
2022/03/11 04:05:18;;;;;;;17.13;12.07;;;-1.20;99.90;;;;;;5051984;28;20528;-48
2022/03/11 04:07:46;;;;;;;26.20;13.70;;;-1.30;99.90;;;;;;5050172;28;21036;-48
2022/03/11 04:10:14;;;;;;;18.87;12.97;;;-1.30;99.90;;;;;;5050624;28;20528;-48
2022/03/11 04:12:41;;;;;;;16.23;12.23;;;-1.30;99.90;;;;;;5046141;28;20893;-48
2022/03/11 04:15:09;;;;;;;20.07;13.33;;;-1.30;99.90;;;;;;5050859;28;20553;-48
2022/03/11 04:17:35;;;;;;;18.10;10.70;;;-1.30;99.90;;;;;;5051129;28;20461;-49
2022/03/11 04:20:02;;;;;;;21.63;12.00;;;-1.20;99.90;;;;;;5051534;28;20545;-48
2022/03/11 04:22:28;;;;;;;24.67;12.27;;;-1.30;99.90;;;;;;5049973;28;20909;-48
2022/03/11 04:24:56;;;;;;;16.83;11.43;;;-1.30;99.90;;;;;;5052069;28;21070;-47
2022/03/11 04:27:23;;;;;;;17.80;11.90;;;-1.40;99.90;;;;;;5045433;28;20550;-48
2022/03/11 04:29:49;;;;;;;16.57;12.27;;;-1.40;99.90;;;;;;5052200;28;20477;-47
2022/03/11 04:32:16;;;;;;;19.43;11.07;;;-1.40;99.90;;;;;;5050045;28;20573;-48
2022/03/11 04:34:42;;;;;;;17.87;12.37;;;-1.40;99.90;;;;;;5049620;28;20914;-47
2022/03/11 04:37:09;;;;;;;14.80;11.63;;;-1.40;99.90;;;;;;5048770;28;20553;-48
2022/03/11 04:39:35;;;;;;;18.67;11.20;;;-1.40;99.90;;;;;;5051817;28;20481;-48
2022/03/11 04:42:06;;;;;;;17.27;11.47;;;-1.40;99.90;;;;;;5049624;28;20494;-49
2022/03/11 04:44:32;;;;;;;17.10;12.30;;;-1.40;99.90;;;;;;5051972;28;20537;-49
2022/03/11 04:46:59;;;;;;;21.53;11.87;;;-1.40;99.90;;;;;;5049969;28;21015;-48
2022/03/11 04:49:26;;;;;;;20.13;12.20;;;-1.40;99.90;;;;;;5062496;28;20493;-49
2022/03/11 04:51:52;;;;;;;23.33;11.93;;;-1.40;99.90;;;;;;5067340;28;20468;-48
2022/03/11 04:54:19;;;;;;;16.87;11.50;;;-1.40;99.90;;;;;;5050619;28;20561;-49
2022/03/11 04:56:45;;;;;;;15.60;12.13;;;-1.40;99.90;;;;;;5049650;28;20904;-48
2022/03/11 04:59:13;;;;;;;17.33;11.57;;;-1.40;99.90;;;;;;5050969;28;20586;-48
2022/03/11 05:01:40;;;;;;;17.67;11.10;;;-1.30;99.90;;;;;;5049601;28;20537;-48
2022/03/11 05:04:06;;;;;;;15.77;10.47;;;-1.30;99.90;;;;;;5052179;28;20577;-48
2022/03/11 05:06:33;;;;;;;16.33;11.30;;;-1.30;99.90;;;;;;5048270;28;20504;-48
2022/03/11 05:08:59;;;;;;;15.97;12.23;;;-1.30;99.90;;;;;;5050900;28;20486;-48
2022/03/11 05:11:26;;;;;;;15.87;11.43;;;-1.30;99.90;;;;;;5048867;28;20552;-48
2022/03/11 05:13:52;;;;;;;15.00;11.00;;;-1.20;99.90;;;;;;5051371;28;20548;-49
2022/03/11 05:16:20;;;;;;;18.37;10.90;;;-1.20;99.90;;;;;;5050436;28;20548;-49
2022/03/11 05:18:47;;;;;;;17.17;12.57;;;-1.30;99.90;;;;;;5051253;28;20548;-48
2022/03/11 05:21:13;;;;;;;16.90;11.60;;;-1.20;99.90;;;;;;5048584;28;20466;-48
2022/03/11 05:23:40;;;;;;;17.73;13.10;;;-1.30;99.90;;;;;;5048603;28;20500;-48
2022/03/11 05:26:24;;;;;;;19.63;11.97;;;-1.30;99.90;;;;;;5050285;28;20545;-48
2022/03/11 05:28:51;;;;;;;20.40;12.17;;;-1.40;99.90;;;;;;5046048;28;20459;-48
2022/03/11 05:31:17;;;;;;;14.47;10.73;;;-1.30;99.90;;;;;;5050536;28;20592;-48
2022/03/11 05:33:45;;;;;;;14.90;11.90;;;-1.40;99.90;;;;;;5047014;28;20573;-47
2022/03/11 05:36:12;;;;;;;18.07;11.90;;;-1.40;99.90;;;;;;5044492;28;21215;-48
2022/03/11 05:38:38;;;;;;;19.53;12.67;;;-1.40;99.90;;;;;;5046181;28;20483;-48
2022/03/11 05:41:05;;;;;;;20.60;11.60;;;-1.50;99.90;;;;;;5051177;28;20530;-48
2022/03/11 05:43:31;;;;;;;17.33;11.77;;;-1.40;99.90;;;;;;5034153;23;21084;-53
2022/03/11 05:45:58;;;;;;;20.30;12.77;;;-1.40;99.90;;;;;;5012257;28;20610;-53
2022/03/11 05:48:24;;;;;;;19.57;13.17;;;-1.40;99.90;;;;;;5008154;28;20547;-53
2022/03/11 05:50:52;;;;;;;18.67;11.80;;;-1.40;99.90;;;;;;5009100;28;20458;-55
2022/03/11 05:53:19;;;;;;;19.43;12.73;;;-1.40;99.90;;;;;;4998719;28;20517;-53
2022/03/11 05:55:45;;;;;;;26.70;11.70;;;-1.40;99.90;;;;;;4992659;28;20874;-54
2022/03/11 05:58:12;;;;;;;20.70;13.27;;;-1.30;99.90;;;;;;4982726;28;20545;-55
2022/03/11 06:00:39;;;;;;;21.60;13.30;;;-1.30;99.90;;;;;;4988544;28;20468;-54
2022/03/11 06:03:06;;;;;;;16.30;12.13;;;-1.30;99.90;;;;;;4991868;28;20583;-55
2022/03/11 06:05:32;;;;;;;23.60;12.40;;;-1.30;99.90;;;;;;4990361;28;20550;-55
2022/03/11 06:08:00;;;;;;;15.07;12.30;;;-1.30;99.90;;;;;;4986828;28;20970;-52
2022/03/11 06:10:27;;;;;;;15.23;11.57;;;-1.30;99.90;;;;;;4995568;28;20532;-53
2022/03/11 06:12:53;;;;;;;17.80;12.87;;;-1.20;99.90;;;;;;4984748;28;20560;-55
2022/03/11 06:15:20;;;;;;;18.13;12.00;;;-1.10;99.90;;;;;;4984843;28;20554;-53
2022/03/11 06:17:46;;;;;;;23.57;13.40;;;-1.10;99.90;;;;;;4986531;28;20596;-52
2022/03/11 06:20:13;;;;;;;20.50;12.80;;;-1.10;99.90;;;;;;4992373;28;20555;-55
2022/03/11 06:22:47;;;;;;;18.90;12.13;;;-1.20;99.90;;;;;;4984258;28;20488;-54
2022/03/11 06:25:15;;;;;;;21.03;12.17;;;-1.20;99.90;;;;;;4989702;28;20492;-53
2022/03/11 06:27:45;;;;;;;20.53;12.70;;;-1.10;99.90;;;;;;4987412;28;20587;-55
2022/03/11 06:30:12;;;;;;;24.70;11.47;;;-1.00;99.90;;;;;;4983429;28;20561;-55
2022/03/11 06:32:42;;;;;;;20.77;13.73;;;-0.90;99.90;;;;;;4995204;28;20567;-54
2022/03/11 06:35:09;;;;;;;19.43;13.20;;;-0.90;99.90;;;;;;4987658;28;20465;-53
2022/03/11 06:37:36;;;;;;;25.03;12.10;;;-0.90;99.90;;;;;;4991401;28;21045;-54
2022/03/11 06:40:03;;;;;;;24.23;13.90;;;-0.80;99.90;;;;;;4993049;28;20556;-52
2022/03/11 06:42:36;;;;;;;19.60;12.93;;;-0.60;99.90;;;;;;4989041;28;21012;-53
2022/03/11 06:45:03;;;;;;;20.23;14.10;;;-0.70;99.90;;;;;;4988091;28;20567;-53
2022/03/11 06:47:29;;;;;;;16.63;11.00;;;-0.60;99.90;;;;;;4989278;28;20471;-55
2022/03/11 06:49:56;;;;;;;19.70;13.20;;;-0.60;99.90;;;;;;4988089;28;20488;-53
2022/03/11 06:52:23;;;;;;;29.03;13.57;;;-0.60;99.90;;;;;;4988965;28;20912;-53
2022/03/11 06:54:49;;;;;;;22.00;13.30;;;-0.50;99.90;;;;;;4988256;28;20551;-53
2022/03/11 06:57:17;;;;;;;16.67;11.60;;;-0.40;99.90;;;;;;4988338;28;20551;-53
2022/03/11 06:59:46;;;;;;;20.67;12.70;;;-0.30;99.90;;;;;;4989641;28;20465;-54
2022/03/11 07:02:13;;;;;;;18.47;12.87;;;-0.40;99.90;;;;;;4988010;28;20587;-53
2022/03/11 07:04:39;;;;;;;18.33;13.03;;;-0.20;99.90;;;;;;4988387;28;20580;-54
2022/03/11 07:07:06;;;;;;;19.87;13.13;;;-0.10;99.90;;;;;;4990313;28;20547;-52
2022/03/11 07:09:33;;;;;;;19.00;11.77;;;0.10;99.90;;;;;;4987164;28;20555;-52
2022/03/11 07:12:01;;;;;;;24.40;12.40;;;0.10;99.90;;;;;;4990376;28;21000;-54
2022/03/11 07:14:28;;;;;;;19.03;12.13;;;0.10;99.90;;;;;;4990509;28;20488;-53
2022/03/11 07:16:57;;;;;;;18.70;12.30;;;0.20;99.90;;;;;;4983551;28;20526;-53
2022/03/11 07:19:24;;;;;;;22.00;13.07;;;0.00;99.90;;;;;;4980995;28;20833;-53
2022/03/11 07:21:50;;;;;;;20.70;13.77;;;0.10;99.90;;;;;;4989102;28;20547;-52
2022/03/11 07:24:17;;;;;;;20.67;13.03;;;0.30;99.90;;;;;;4985844;28;20563;-54
2022/03/11 07:26:44;;;;;;;23.10;13.63;;;0.40;99.90;;;;;;4986127;28;20555;-52
2022/03/11 07:29:10;;;;;;;27.23;13.70;;;0.70;99.90;;;;;;4982535;28;20493;-53
2022/03/11 07:31:37;;;;;;;15.63;11.87;;;0.80;99.90;;;;;;4986337;28;20549;-53
2022/03/11 07:34:05;;;;;;;23.47;13.47;;;0.80;99.90;;;;;;4984746;28;20579;-53
2022/03/11 07:36:34;;;;;;;23.63;12.23;;;0.70;99.90;;;;;;4988100;28;20536;-53
2022/03/11 07:39:01;;;;;;;25.17;14.67;;;0.80;99.90;;;;;;4985912;28;20457;-54
2022/03/11 07:41:28;;;;;;;32.53;13.30;;;1.20;99.90;;;;;;4988251;28;20993;-54
2022/03/11 07:43:55;;;;;;;20.10;13.87;;;0.90;99.90;;;;;;4981679;28;21290;-53
2022/03/11 07:46:23;;;;;;;22.40;12.83;;;0.90;99.90;;;;;;4989569;28;21137;-54
2022/03/11 07:48:49;;;;;;;28.23;13.30;;;1.10;99.90;;;;;;4988368;28;20516;-52
2022/03/11 07:51:17;;;;;;;22.60;13.10;;;1.00;99.90;;;;;;4983339;28;20543;-53
2022/03/11 07:53:44;;;;;;;16.47;12.40;;;0.90;99.90;;;;;;4989149;28;20560;-52
2022/03/11 07:56:12;;;;;;;22.00;13.40;;;0.80;99.90;;;;;;4987999;28;20524;-52
2022/03/11 07:58:41;;;;;;;22.27;12.87;;;1.00;99.90;;;;;;4984836;28;21020;-52
2022/03/11 08:01:08;;;;;;;19.77;12.30;;;1.00;99.90;;;;;;4987245;28;20484;-52
2022/03/11 08:03:35;;;;;;;17.10;12.97;;;1.10;99.90;;;;;;4982193;28;20909;-52
2022/03/11 08:06:01;;;;;;;21.80;13.73;;;1.00;99.90;;;;;;4988252;28;20565;-52
2022/03/11 08:08:29;;;;;;;18.43;12.33;;;1.30;99.90;;;;;;4983644;28;20469;-53
2022/03/11 08:10:56;;;;;;;20.93;13.57;;;1.60;99.90;;;;;;4983382;28;20544;-53
2022/03/11 08:13:23;;;;;;;19.90;14.30;;;1.70;99.90;;;;;;4986075;28;20513;-53
2022/03/11 08:15:50;;;;;;;22.80;13.40;;;2.00;99.90;;;;;;4986504;28;20551;-52
2022/03/11 08:18:17;;;;;;;19.40;12.60;;;2.20;99.90;;;;;;4987971;28;20551;-53
2022/03/11 08:20:43;;;;;;;19.77;12.80;;;2.60;99.90;;;;;;4988745;28;20484;-52
2022/03/11 08:23:10;;;;;;;18.93;12.00;;;2.50;99.90;;;;;;4984622;28;20517;-53
2022/03/11 08:25:38;;;;;;;23.57;12.93;;;2.50;99.90;;;;;;4989667;28;20568;-54
2022/03/11 08:28:10;;;;;;;20.77;11.53;;;2.70;99.90;;;;;;4986152;28;20555;-52
2022/03/11 08:30:36;;;;;;;19.50;12.60;;;2.80;99.90;;;;;;4985862;28;20457;-52
2022/03/11 08:33:04;;;;;;;22.50;13.70;;;3.10;99.90;;;;;;4986789;28;20563;-53
2022/03/11 08:35:31;;;;;;;21.93;13.27;;;3.10;99.90;;;;;;4988513;28;20934;-53
2022/03/11 08:37:58;;;;;;;19.40;12.53;;;3.20;99.90;;;;;;4988858;28;20488;-52
2022/03/11 08:40:26;;;;;;;26.13;13.90;;;3.30;99.90;;;;;;4984198;28;20551;-53
2022/03/11 08:42:54;;;;;;;22.03;14.07;;;3.40;99.90;;;;;;4988176;28;20488;-53
2022/03/11 08:45:22;;;;;;;25.10;12.83;;;3.90;99.90;;;;;;4982527;28;20491;-53
2022/03/11 08:47:49;;;;;;;20.47;13.73;;;3.90;99.90;;;;;;4985169;28;20469;-54
2022/03/11 08:50:16;;;;;;;19.23;13.20;;;3.50;99.90;;;;;;4991397;28;20543;-52
2022/03/11 08:52:43;;;;;;;20.77;13.77;;;4.40;99.90;;;;;;4991077;28;20480;-53
2022/03/11 08:55:11;;;;;;;21.70;13.30;;;4.60;99.90;;;;;;4991281;28;20547;-53
2022/03/11 08:57:38;;;;;;;20.87;12.40;;;4.40;99.90;;;;;;4987158;28;20541;-54
2022/03/11 09:00:08;;;;;;;18.40;12.53;;;3.60;99.90;;;;;;4986645;28;20546;-53
2022/03/11 09:02:37;;;;;;;18.37;12.90;;;4.40;99.90;;;;;;4991927;28;20587;-53
2022/03/11 09:05:04;;;;;;;20.90;12.27;;;5.20;99.90;;;;;;4989265;28;20480;-52
2022/03/11 09:07:32;;;;;;;31.43;13.40;;;5.70;99.90;;;;;;4992232;28;21285;-52
2022/03/11 09:09:59;;;;;;;34.47;12.73;;;7.30;99.90;;;;;;4988102;28;20464;-52
2022/03/11 09:12:26;;;;;;;19.90;13.87;;;7.90;99.90;;;;;;4990741;28;21086;-53
2022/03/11 09:14:53;;;;;;;20.97;13.33;;;7.90;99.90;;;;;;4985992;28;21176;-53
2022/03/11 09:17:21;;;;;;;19.27;12.33;;;7.20;99.90;;;;;;4989813;28;20552;-54
2022/03/11 09:19:47;;;;;;;26.53;13.70;;;5.80;99.90;;;;;;4987572;28;20548;-53
2022/03/11 09:22:14;;;;;;;20.20;12.33;;;6.50;99.90;;;;;;4991613;28;20923;-54
2022/03/11 09:24:41;;;;;;;17.50;12.10;;;7.80;99.90;;;;;;4989598;28;20514;-53
2022/03/11 09:27:09;;;;;;;17.70;12.63;;;6.10;99.90;;;;;;4989413;28;20491;-53
2022/03/11 09:29:36;;;;;;;22.20;13.27;;;6.50;99.90;;;;;;4980700;28;20870;-54
2022/03/11 09:32:03;;;;;;;17.83;12.93;;;6.80;99.90;;;;;;4981953;28;20571;-52
2022/03/11 09:34:31;;;;;;;27.60;13.77;;;7.40;99.90;;;;;;4985691;28;20553;-53
2022/03/11 09:36:58;;;;;;;28.23;13.97;;;8.30;99.90;;;;;;4986410;28;21012;-54
2022/03/11 09:39:25;;;;;;;24.43;13.70;;;7.80;99.90;;;;;;4989042;28;20900;-52
2022/03/11 09:41:52;;;;;;;21.70;12.23;;;7.60;99.90;;;;;;4981130;28;20492;-52
2022/03/11 09:44:19;;;;;;;19.53;12.37;;;7.20;99.90;;;;;;4993561;28;20544;-52
2022/03/11 09:46:47;;;;;;;22.50;13.70;;;6.60;99.90;;;;;;4985960;28;20571;-52
2022/03/11 09:49:15;;;;;;;16.60;11.63;;;6.00;99.90;;;;;;4986508;28;20932;-53
2022/03/11 09:51:45;;;;;;;16.83;12.20;;;5.40;99.90;;;;;;4991229;28;21400;-54
2022/03/11 09:54:12;;;;;;;17.30;11.63;;;5.30;99.90;;;;;;4985416;28;20472;-52
2022/03/11 09:56:40;;;;;;;17.13;12.87;;;5.80;99.90;;;;;;4989033;28;22034;-53
2022/03/11 09:59:07;;;;;;;24.30;14.00;;;6.00;99.90;;;;;;4994874;28;20551;-52
2022/03/11 10:01:34;;;;;;;20.50;14.53;;;5.50;99.90;;;;;;4991979;28;20543;-53
2022/03/11 10:04:03;;;;;;;22.30;12.60;;;5.90;99.90;;;;;;4987217;28;20563;-55
2022/03/11 10:06:40;;;;;;;18.70;12.50;;;6.10;99.90;;;;;;4983628;28;20564;-53
2022/03/11 10:09:30;;;;;;;17.20;13.03;;;6.50;99.90;;;;;;4988657;28;20453;-52
2022/03/11 10:11:58;;;;;;;19.37;13.30;;;6.90;99.90;;;;;;4988059;28;20461;-53
2022/03/11 10:14:28;;;;;;;17.50;11.63;;;7.10;99.90;;;;;;4978125;28;20597;-52
2022/03/11 10:16:55;;;;;;;19.20;13.93;;;6.70;99.90;;;;;;4983458;28;20547;-52
2022/03/11 10:19:22;;;;;;;19.03;11.77;;;5.90;99.90;;;;;;4984398;28;20461;-53
2022/03/11 10:21:50;;;;;;;22.67;12.17;;;6.50;99.90;;;;;;4988974;28;20519;-53
2022/03/11 10:24:21;;;;;;;17.47;12.37;;;6.50;99.90;;;;;;4994621;28;20529;-55
2022/03/11 10:26:49;;;;;;;18.60;12.57;;;6.60;99.90;;;;;;4987455;28;20599;-53
2022/03/11 10:29:19;;;;;;;18.57;12.97;;;6.50;99.90;;;;;;4992564;28;20873;-53
2022/03/11 10:31:48;;;;;;;16.73;12.37;;;6.60;99.90;;;;;;4994132;28;20552;-53
2022/03/11 10:34:17;;;;;;;23.43;12.37;;;7.30;99.90;;;;;;4996989;28;20555;-53
2022/03/11 10:36:49;;;;;;;17.60;12.60;;;7.40;99.90;;;;;;4994958;28;20463;-53
2022/03/11 10:39:18;;;;;;;18.07;12.17;;;7.70;99.90;;;;;;4994089;28;20560;-55
2022/03/11 10:41:46;;;;;;;24.23;12.47;;;8.50;99.90;;;;;;4986608;28;20564;-55
2022/03/11 10:44:13;;;;;;;17.47;12.27;;;6.90;99.90;;;;;;4984580;28;20457;-52
2022/03/11 10:46:40;;;;;;;37.23;12.90;;;7.40;99.90;;;;;;4983630;28;20583;-52
2022/03/11 10:49:07;;;;;;;19.57;11.90;;;8.50;99.90;;;;;;4988615;28;20954;-53
2022/03/11 10:51:36;;;;;;;25.03;12.20;;;8.90;99.90;;;;;;4984461;28;20456;-53
2022/03/11 10:54:04;;;;;;;16.13;12.23;;;8.60;99.90;;;;;;4985470;28;20913;-54
2022/03/11 10:56:34;;;;;;;17.33;12.03;;;8.50;99.90;;;;;;4981323;28;20554;-54
2022/03/11 10:59:05;;;;;;;38.43;11.90;;;7.60;99.90;;;;;;4986357;28;20460;-54
2022/03/11 11:01:35;;;;;;;15.23;11.13;;;7.80;99.90;;;;;;4986751;28;20471;-54
2022/03/11 11:04:04;;;;;;;16.87;10.53;;;7.40;99.90;;;;;;4984898;28;20481;-54
2022/03/11 11:06:31;;;;;;;15.37;11.57;;;7.10;99.90;;;;;;4989505;28;20484;-54
2022/03/11 11:08:58;;;;;;;18.77;12.60;;;7.30;99.90;;;;;;4985550;28;20551;-53
2022/03/11 11:11:24;;;;;;;15.20;10.70;;;7.20;99.90;;;;;;4991074;28;20551;-53
2022/03/11 11:13:52;;;;;;;32.67;12.70;;;7.10;99.90;;;;;;4984467;28;20575;-53
2022/03/11 11:16:24;;;;;;;21.23;10.83;;;7.00;99.90;;;;;;4987511;28;21036;-53
2022/03/11 11:18:52;;;;;;;21.30;10.70;;;7.30;99.90;;;;;;4984997;28;21104;-52
2022/03/11 11:21:24;;;;;;;15.37;11.40;;;7.50;99.90;;;;;;4977210;28;20563;-54
2022/03/11 11:23:54;;;;;;;18.97;11.40;;;7.70;99.90;;;;;;4982465;28;20481;-53
2022/03/11 11:26:22;;;;;;;20.47;9.60;;;7.40;99.90;;;;;;4983846;28;20508;-54
2022/03/11 11:28:49;;;;;;;38.87;11.57;;;7.80;99.90;;;;;;4984073;28;20547;-53
2022/03/11 11:31:19;;;;;;;27.63;10.90;;;7.80;99.90;;;;;;4984626;28;20543;-54
2022/03/11 11:33:47;;;;;;;16.60;11.07;;;8.00;99.90;;;;;;4980245;28;20484;-52
2022/03/11 11:36:14;;;;;;;14.23;10.60;;;7.20;99.90;;;;;;4977679;28;20546;-53
2022/03/11 11:38:45;;;;;;;14.73;10.63;;;7.70;99.90;;;;;;4983010;28;21212;-53
2022/03/11 11:41:25;;;;;;;17.90;9.53;;;7.50;99.90;;;;;;4983887;28;20456;-53
2022/03/11 11:43:52;;;;;;;14.07;10.57;;;7.60;99.90;;;;;;4998297;23;21021;-54
2022/03/11 11:46:22;;;;;;;14.27;10.17;;;8.30;99.90;;;;;;4983416;28;21032;-53
2022/03/11 11:49:12;;;;;;;16.27;10.43;;;8.00;99.90;;;;;;4980920;28;20457;-54
2022/03/11 11:52:04;;;;;;;14.50;9.40;;;7.80;99.90;;;;;;4985838;28;20529;-54
2022/03/11 11:54:44;;;;;;;19.03;9.70;;;7.70;99.90;;;;;;4982290;28;20508;-54
2022/03/11 11:57:28;;;;;;;12.43;9.77;;;7.50;99.90;;;;;;4982523;28;20468;-54
2022/03/11 11:59:55;;;;;;;15.90;9.00;;;7.20;99.90;;;;;;4988138;28;21052;-54
2022/03/11 12:02:32;;;;;;;12.33;9.60;;;7.10;99.90;;;;;;4990202;28;20543;-54
2022/03/11 12:04:59;;;;;;;16.27;9.43;;;7.30;99.90;;;;;;4991474;28;20423;-53
2022/03/11 12:07:49;;;;;;;19.60;8.93;;;7.80;99.90;;;;;;4990752;28;20480;-54
2022/03/11 12:10:26;;;;;;;17.27;9.00;;;7.40;99.90;;;;;;4989348;28;20592;-54
2022/03/11 12:13:01;;;;;;;12.90;9.37;;;7.50;99.90;;;;;;4988862;28;21323;-54
2022/03/11 12:15:32;;;;;;;10.60;8.60;;;8.10;99.90;;;;;;4991258;28;20566;-54
2022/03/11 12:18:01;;;;;;;10.60;8.20;;;7.90;99.90;;;;;;4984247;28;20457;-55
2022/03/11 12:20:31;;;;;;;18.10;9.37;;;8.00;99.90;;;;;;4992519;28;20460;-55
2022/03/11 12:23:00;;;;;;;12.60;8.03;;;7.80;99.90;;;;;;4984961;28;20480;-55
2022/03/11 12:25:29;;;;;;;12.90;9.10;;;7.60;99.90;;;;;;4985109;28;20476;-53
2022/03/11 12:28:10;;;;;;;12.13;8.57;;;7.50;99.90;;;;;;4983762;28;20584;-55
2022/03/11 12:30:40;;;;;;;15.03;9.00;;;7.90;99.90;;;;;;4986673;28;20469;-53
2022/03/11 12:33:09;;;;;;;12.33;7.70;;;7.90;99.90;;;;;;4990058;28;20926;-53
2022/03/11 12:35:36;;;;;;;12.50;8.97;;;8.00;99.90;;;;;;4989906;28;20499;-54